1884 NOT_NAMED (1884032S14078)


IBTrACS version v04r00. Visit IBTrACS website for data access.
Please direct all questions to the IBTrACS Q and A forum

Storm track - Intensity - Wind Radii - Intensity Data - Source Data - All data

Summary Information

Storm ID 1884032S14078
Start Feb 1 06Z
End Feb 7 06Z
ATCF IDs
Track status Best track data.

Storm track plot

Map of storm track

Intensity plots

No Intensity information for this storm


Radial wind information

No radial wind information for this storm


Position and Intensity Table

BASIN ISO_TIME_________ NATURE LAT LON
degrees north degrees east
SI 1884-02-01 06:00:00 NR -13.70 78.10
SI 09:00:00 NR -13.78 77.82
SI 12:00:00 NR -13.86 77.53
SI 15:00:00 NR -13.96 77.22
SI 18:00:00 NR -14.08 76.88
SI 21:00:00 NR -14.22 76.51
SI 1884-02-02 00:00:00 NR -14.41 76.10
SI 03:00:00 NR -14.63 75.63
SI 06:00:00 NR -14.90 75.10
SI 09:00:00 NR -15.22 74.50
SI 12:00:00 NR -15.59 73.86
SI 15:00:00 NR -16.00 73.18
SI 18:00:00 NR -16.44 72.50
SI 21:00:00 NR -16.89 71.84
SI 1884-02-03 00:00:00 NR -17.36 71.22
SI 03:00:00 NR -17.83 70.67
SI 06:00:00 NR -18.30 70.20
SI 09:00:00 NR -18.72 69.86
SI 12:00:00 NR -19.14 69.60
SI 15:00:00 NR -19.56 69.41
SI 18:00:00 NR -19.99 69.29
SI 21:00:00 NR -20.43 69.23
SI 1884-02-04 00:00:00 NR -20.87 69.21
SI 03:00:00 NR -21.33 69.24
SI 06:00:00 NR -21.80 69.30
SI 09:00:00 NR -22.29 69.33
SI 12:00:00 NR -22.80 69.41
SI 15:00:00 NR -23.32 69.53
SI 18:00:00 NR -23.84 69.67
SI 21:00:00 NR -24.37 69.85
SI 1884-02-05 00:00:00 NR -24.89 70.05
SI 03:00:00 NR -25.40 70.27
SI 06:00:00 NR -25.90 70.50
SI 09:00:00 NR -26.42 70.74
SI 12:00:00 NR -26.93 70.99
SI 15:00:00 NR -27.42 71.26
SI 18:00:00 NR -27.90 71.54
SI 21:00:00 NR -28.36 71.82
SI 1884-02-06 00:00:00 NR -28.78 72.10
SI 03:00:00 NR -29.16 72.36
SI 06:00:00 NR -29.50 72.60
SI 09:00:00 NR -29.79 72.81
SI 12:00:00 NR -30.03 73.00
SI 15:00:00 NR -30.23 73.17
SI 18:00:00 NR -30.41 73.32
SI 21:00:00 NR -30.55 73.45
SI 1884-02-07 00:00:00 NR -30.68 73.57
SI 03:00:00 NR -30.79 73.69
SI 06:00:00 NR -30.90 73.80

Source Information

Agency Information
USA
TOKYO
CMA
HKO
NEWDELHI
REUNION WMO-Best-Tracks.txt:Line=1363:xxxx884200
BOM
NADI
WELLINGTON
DS824
TD9636
TD9635
NEUMANN
MLC

All available IBTrACS Data

SEASON BASIN SUBBASIN ISO_TIME_________ NATURE LAT LON WMO AGENCY DIST2LAND LANDFALL IFLAG USA SSHS REUNION LAT REUNION LON REUNION TYPE REUNION TNUM STORM SPEED STORM DIR
Year degrees north degrees east km km 1 degrees north degrees east 1 kts degrees
1884 SI MM 1884-02-01 06:00:00 NR -13.70 78.10 reunion 2213 2213 _____O________ -1 -13.70 78.10 99 9.90 6 254
1884 SI MM 09:00:00 NR -13.78 77.82 2228 2211 _____P________ -1 -13.78 77.82 99 6 254
1884 SI MM 12:00:00 NR -13.86 77.53 2211 2176 _____P________ -1 -13.86 77.53 99 6 253
1884 SI MM 15:00:00 NR -13.96 77.22 2176 2142 _____P________ -1 -13.96 77.22 99 7 251
1884 SI MM 18:00:00 NR -14.08 76.88 2142 2098 _____P________ -1 -14.08 76.88 99 7 249
1884 SI MM 21:00:00 NR -14.22 76.51 2098 2050 _____P________ -1 -14.22 76.51 99 8 247
1884 SI MM 1884-02-02 00:00:00 NR -14.41 76.10 2050 2001 _____P________ -1 -14.41 76.10 99 9 245
1884 SI MM 03:00:00 NR -14.63 75.63 1991 1929 _____P________ -1 -14.63 75.63 99 11 243
1884 SI MM 06:00:00 NR -14.90 75.10 reunion 1929 1857 _____O________ -1 -14.90 75.10 99 9.90 12 241
1884 SI MM 09:00:00 NR -15.22 74.50 1857 1781 _____P________ -1 -15.22 74.50 99 14 240
1884 SI MM 12:00:00 NR -15.59 73.86 1781 1696 _____P________ -1 -15.59 73.86 99 15 239
1884 SI MM 15:00:00 NR -16.00 73.18 1696 1611 _____P________ -1 -16.00 73.18 99 16 237
1884 SI MM 18:00:00 NR -16.44 72.50 1611 1533 _____P________ -1 -16.44 72.50 99 16 235
1884 SI MM 21:00:00 NR -16.89 71.84 1523 1459 _____P________ -1 -16.89 71.84 99 15 233
1884 SI MM 1884-02-03 00:00:00 NR -17.36 71.22 1446 1384 _____P________ -1 -17.36 71.22 99 15 230
1884 SI MM 03:00:00 NR -17.83 70.67 1384 1320 _____P________ -1 -17.83 70.67 99 14 226
1884 SI MM 06:00:00 NR -18.30 70.20 reunion 1320 1280 _____O________ -1 -18.30 70.20 99 9.90 12 221
1884 SI MM 09:00:00 NR -18.72 69.86 1280 1242 _____P________ -1 -18.72 69.86 99 10 214
1884 SI MM 12:00:00 NR -19.14 69.60 1242 1215 _____P________ -1 -19.14 69.60 99 9 207
1884 SI MM 15:00:00 NR -19.56 69.41 1214 1200 _____P________ -1 -19.56 69.41 99 9 199
1884 SI MM 18:00:00 NR -19.99 69.29 1200 1188 _____P________ -1 -19.99 69.29 99 9 191
1884 SI MM 21:00:00 NR -20.43 69.23 1188 1187 _____P________ -1 -20.43 69.23 99 9 185
1884 SI MM 1884-02-04 00:00:00 NR -20.87 69.21 1188 1188 _____P________ -1 -20.87 69.21 99 9 0
1884 SI MM 03:00:00 NR -21.33 69.24 1189 1189 _____P________ -1 -21.33 69.24 99 9 175
1884 SI MM 06:00:00 NR -21.80 69.30 reunion 1204 1204 _____O________ -1 -21.80 69.30 99 9.90 10 175
1884 SI MM 09:00:00 NR -22.29 69.33 1211 1211 _____P________ -1 -22.29 69.33 99 10 174
1884 SI MM 12:00:00 NR -22.80 69.41 1231 1231 _____P________ -1 -22.80 69.41 99 10 170
1884 SI MM 15:00:00 NR -23.32 69.53 1252 1252 _____P________ -1 -23.32 69.53 99 11 167
1884 SI MM 18:00:00 NR -23.84 69.67 1286 1286 _____P________ -1 -23.84 69.67 99 11 164
1884 SI MM 21:00:00 NR -24.37 69.85 1315 1315 _____P________ -1 -24.37 69.85 99 11 162
1884 SI MM 1884-02-05 00:00:00 NR -24.89 70.05 1352 1352 _____P________ -1 -24.89 70.05 99 11 160
1884 SI MM 03:00:00 NR -25.40 70.27 1400 1400 _____P________ -1 -25.40 70.27 99 11 158
1884 SI MM 06:00:00 NR -25.90 70.50 reunion 1439 1439 _____O________ -1 -25.90 70.50 99 9.90 11 158
1884 SI MM 09:00:00 NR -26.42 70.74 1479 1479 _____P________ -1 -26.42 70.74 99 11 157
1884 SI MM 12:00:00 NR -26.93 70.99 1529 1529 _____P________ -1 -26.93 70.99 99 11 155
1884 SI MM 15:00:00 NR -27.42 71.26 1580 1580 _____P________ -1 -27.42 71.26 99 11 153
1884 SI MM 18:00:00 NR -27.90 71.54 1623 1623 _____P________ -1 -27.90 71.54 99 11 152
1884 SI MM 21:00:00 NR -28.36 71.82 1675 1675 _____P________ -1 -28.36 71.82 99 10 151
1884 SI MM 1884-02-06 00:00:00 NR -28.78 72.10 1722 1722 _____P________ -1 -28.78 72.10 99 9 150
1884 SI MM 03:00:00 NR -29.16 72.36 1769 1769 _____P________ -1 -29.16 72.36 99 8 149
1884 SI MM 06:00:00 NR -29.50 72.60 reunion 1803 1803 _____O________ -1 -29.50 72.60 99 9.90 7 148
1884 SI MM 09:00:00 NR -29.79 72.81 1837 1837 _____P________ -1 -29.79 72.81 99 6 147
1884 SI MM 12:00:00 NR -30.03 73.00 1865 1865 _____P________ -1 -30.03 73.00 99 5 146
1884 SI MM 15:00:00 NR -30.23 73.17 1893 1893 _____P________ -1 -30.23 73.17 99 5 144
1884 SI MM 18:00:00 NR -30.41 73.32 1913 1913 _____P________ -1 -30.41 73.32 99 4 143
1884 SI MM 21:00:00 NR -30.55 73.45 1941 1941 _____P________ -1 -30.55 73.45 99 4 141
1884 SI MM 1884-02-07 00:00:00 NR -30.68 73.57 1955 1955 _____P________ -1 -30.68 73.57 99 3 139
1884 SI MM 03:00:00 NR -30.79 73.69 1969 1969 _____P________ -1 -30.79 73.69 99 3 139
1884 SI MM 06:00:00 NR -30.90 73.80 reunion 1983 _____O________ -1 -30.90 73.80 99 9.90 3 139